Airport View

Enter AWOS ICAO identifier for current METAR.

ex. KFNL

KDNS 250235Z AUTO 34003KT 10SM CLR 18/18 A2985 RMK AO2

25 May 2020 02:36

Frequency: 119.95

Phone: 712-263-6558

Other Area AWOS: KHNR - KCIN - KADU - KSLB

TAF KOMA 242323Z 2500/2524 13009KT P6SM VCTS BKN040CB TEMPO 2500/2501 3SM -TSRA BKN035CB FM250300 01003KT P6SM BKN040 FM251200 35005KT 6SM -SHRA BR OVC040 FM251400 36005KT 6SM -SHRA OVC015